createdAt,value
2018-09-29T00:01:10.788Z,0.50
2018-09-29T00:03:38.217Z,0.40
2018-09-29T00:06:05.877Z,0.50
2018-09-29T00:08:33.266Z,0.50
2018-09-29T00:11:00.658Z,0.40
2018-09-29T00:13:28.060Z,0.53
2018-09-29T00:15:55.469Z,0.50
2018-09-29T00:18:22.923Z,0.50
2018-09-29T00:20:50.326Z,0.50
2018-09-29T00:23:17.727Z,0.63
2018-09-29T00:25:45.145Z,0.40
2018-09-29T00:28:12.569Z,0.70
2018-09-29T00:30:39.960Z,0.40
2018-09-29T00:33:07.406Z,0.60
2018-09-29T00:35:34.788Z,0.60
2018-09-29T00:38:02.203Z,0.33
2018-09-29T00:40:29.637Z,0.70
2018-09-29T00:42:57.041Z,0.50
2018-09-29T00:45:24.436Z,0.40
2018-09-29T00:47:51.865Z,0.50
2018-09-29T00:50:19.306Z,0.50
2018-09-29T00:52:46.718Z,0.43
2018-09-29T00:55:14.157Z,0.60
2018-09-29T00:57:41.581Z,0.63
2018-09-29T01:00:08.987Z,0.40
2018-09-29T01:02:36.409Z,0.50
2018-09-29T01:05:03.837Z,0.50
2018-09-29T01:07:31.449Z,0.60
2018-09-29T01:09:58.845Z,0.50
2018-09-29T01:12:26.237Z,0.30
2018-09-29T01:14:53.709Z,0.40
2018-09-29T01:17:21.101Z,0.50
2018-09-29T01:19:48.509Z,0.60
2018-09-29T01:22:15.940Z,0.40
2018-09-29T01:24:43.312Z,0.60
2018-09-29T01:27:10.744Z,0.60
2018-09-29T01:29:38.152Z,0.50
2018-09-29T01:32:05.553Z,0.40
2018-09-29T01:34:32.973Z,0.70
2018-09-29T01:37:00.374Z,0.40
2018-09-29T01:39:27.805Z,0.40
2018-09-29T01:41:55.277Z,0.40
2018-09-29T01:44:22.694Z,0.60
2018-09-29T01:46:50.126Z,0.53
2018-09-29T01:49:17.540Z,0.40
2018-09-29T01:51:44.901Z,0.47
2018-09-29T01:54:12.328Z,0.60
2018-09-29T01:56:39.761Z,0.50
2018-09-29T01:59:07.209Z,0.50
2018-09-29T02:01:34.625Z,0.70
2018-09-29T02:04:02.036Z,0.57
2018-09-29T02:06:29.493Z,0.33
2018-09-29T02:08:56.908Z,0.40
2018-09-29T02:11:25.162Z,0.50
2018-09-29T02:13:52.584Z,0.50
2018-09-29T02:16:19.974Z,0.60
2018-09-29T02:18:47.381Z,0.50
2018-09-29T02:21:14.876Z,0.67
2018-09-29T02:23:42.336Z,0.60
2018-09-29T02:26:09.753Z,0.47
2018-09-29T02:28:37.273Z,0.60
2018-09-29T02:31:04.665Z,0.53
2018-09-29T02:33:32.026Z,0.37
2018-09-29T02:35:59.490Z,0.37
2018-09-29T02:38:26.866Z,0.40
2018-09-29T02:40:54.286Z,0.50
2018-09-29T02:43:21.724Z,0.43
2018-09-29T02:45:49.177Z,0.50
2018-09-29T02:48:16.599Z,0.50
2018-09-29T02:50:44.052Z,0.53
2018-09-29T02:53:11.461Z,0.60
2018-09-29T02:55:39.030Z,0.50
2018-09-29T02:58:06.438Z,0.40
2018-09-29T03:00:33.865Z,0.50
2018-09-29T03:03:01.275Z,0.63
2018-09-29T03:05:28.675Z,0.60
2018-09-29T03:07:56.104Z,0.40
2018-09-29T03:10:23.549Z,0.50
2018-09-29T03:12:50.953Z,0.50
2018-09-29T03:15:18.341Z,0.60
2018-09-29T03:17:45.749Z,0.60
2018-09-29T03:20:13.177Z,0.50
2018-09-29T03:22:40.593Z,0.50
2018-09-29T03:25:08.006Z,0.57
2018-09-29T03:27:35.411Z,0.60
2018-09-29T03:30:02.951Z,0.60
2018-09-29T03:32:30.343Z,0.30
2018-09-29T03:34:57.718Z,0.47
2018-09-29T03:37:25.149Z,0.30
2018-09-29T03:39:52.596Z,0.50
2018-09-29T03:42:20.016Z,0.60
2018-09-29T03:44:47.390Z,0.50
2018-09-29T03:47:14.777Z,0.50
2018-09-29T03:49:42.212Z,0.33
2018-09-29T03:52:09.601Z,0.40
2018-09-29T03:54:37.002Z,0.50
2018-09-29T03:57:04.420Z,0.50
2018-09-29T03:59:31.830Z,0.50
2018-09-29T04:01:59.287Z,0.37
2018-09-29T04:04:26.668Z,0.50
2018-09-29T04:06:54.062Z,0.37
2018-09-29T04:09:21.488Z,0.40
2018-09-29T04:11:48.878Z,0.40
2018-09-29T04:14:16.338Z,0.47
2018-09-29T04:16:43.757Z,0.50
2018-09-29T04:19:11.164Z,0.50
2018-09-29T04:21:45.597Z,0.67
2018-09-29T04:24:13.195Z,0.47
2018-09-29T04:26:40.708Z,0.60
2018-09-29T04:29:08.084Z,0.40
2018-09-29T04:31:35.503Z,0.60
2018-09-29T04:34:02.968Z,0.40
2018-09-29T04:36:30.353Z,0.40
2018-09-29T04:41:17.893Z,0.40
2018-09-29T04:43:45.418Z,0.60
2018-09-29T04:46:12.837Z,0.83
2018-09-29T04:48:40.298Z,0.60
2018-09-29T04:51:07.701Z,0.57
2018-09-29T04:53:35.089Z,0.40
2018-09-29T04:56:02.554Z,0.37
2018-09-29T04:58:29.986Z,0.60
2018-09-29T05:00:57.435Z,0.30
2018-09-29T05:03:24.890Z,0.40
2018-09-29T05:05:52.261Z,0.40
2018-09-29T05:08:19.680Z,0.40
2018-09-29T05:10:47.125Z,0.47
2018-09-29T05:13:14.589Z,0.40
2018-09-29T05:15:41.975Z,0.40
2018-09-29T05:18:09.354Z,0.40
2018-09-29T05:20:36.792Z,0.50
2018-09-29T05:23:04.447Z,0.50
2018-09-29T05:28:00.828Z,0.40
2018-09-29T05:30:28.249Z,0.43
2018-09-29T05:32:55.668Z,0.50
2018-09-29T05:35:23.064Z,0.60
2018-09-29T05:37:50.501Z,0.70
2018-09-29T05:40:17.938Z,0.40
2018-09-29T05:42:45.361Z,0.50
2018-09-29T05:45:12.808Z,0.50
2018-09-29T05:47:40.235Z,0.77
2018-09-29T05:50:07.996Z,1.30
2018-09-29T05:52:35.441Z,0.47
2018-09-29T05:55:02.886Z,0.40
2018-09-29T05:57:30.339Z,0.27
2018-09-29T06:00:04.739Z,0.27
2018-09-29T06:02:32.129Z,0.43
2018-09-29T06:04:59.617Z,0.33
2018-09-29T06:07:27.088Z,0.60
2018-09-29T06:09:54.443Z,0.60
2018-09-29T06:12:21.877Z,0.60
2018-09-29T06:14:49.337Z,0.47
2018-09-29T06:17:16.845Z,1.50
2018-09-29T06:19:44.529Z,1.13
2018-09-29T06:22:11.928Z,1.30
2018-09-29T06:24:39.368Z,1.70
2018-09-29T06:27:06.740Z,1.53
2018-09-29T06:29:34.132Z,1.30
2018-09-29T06:32:01.577Z,1.20
2018-09-29T06:34:29.010Z,0.97
2018-09-29T06:36:56.598Z,1.20
2018-09-29T06:39:23.983Z,0.90
2018-09-29T06:41:51.445Z,1.20
2018-09-29T06:44:18.928Z,1.80
2018-09-29T06:46:46.313Z,9.37
2018-09-29T06:49:13.697Z,4.90
2018-09-29T06:51:41.134Z,3.97
2018-09-29T06:54:08.536Z,3.10
2018-09-29T06:56:35.936Z,1.87
2018-09-29T06:59:03.442Z,1.50
2018-09-29T07:01:30.815Z,1.33
2018-09-29T07:03:58.236Z,1.30
2018-09-29T07:06:25.667Z,1.40
2018-09-29T07:08:53.114Z,1.70
2018-09-29T07:11:20.593Z,1.50
2018-09-29T07:13:48.055Z,1.30
2018-09-29T07:16:15.560Z,1.37
2018-09-29T07:18:43.005Z,1.27
2018-09-29T07:21:10.441Z,0.80
2018-09-29T07:23:37.848Z,1.00
2018-09-29T07:26:05.406Z,0.70
2018-09-29T07:31:25.743Z,0.80
2018-09-29T07:33:53.105Z,0.40
2018-09-29T07:36:20.554Z,1.20
2018-09-29T07:38:47.999Z,0.77
2018-09-29T07:41:15.385Z,0.70
2018-09-29T07:43:42.780Z,0.67
2018-09-29T07:46:10.333Z,0.77
2018-09-29T07:48:37.793Z,0.60
2018-09-29T07:51:05.329Z,0.80
2018-09-29T07:53:32.769Z,0.73
2018-09-29T07:56:00.276Z,0.80
2018-09-29T07:58:27.636Z,0.80
2018-09-29T08:00:55.032Z,0.60
2018-09-29T08:03:22.448Z,0.90
2018-09-29T08:05:49.930Z,0.60
2018-09-29T08:08:17.355Z,0.60
2018-09-29T08:10:44.742Z,0.90
2018-09-29T08:13:12.181Z,0.90
2018-09-29T08:15:39.672Z,0.97
2018-09-29T08:21:00.065Z,0.70
2018-09-29T08:23:27.530Z,0.63
2018-09-29T08:25:54.966Z,0.53
2018-09-29T08:28:22.476Z,0.70
2018-09-29T08:30:49.957Z,0.70
2018-09-29T08:33:18.487Z,0.77
2018-09-29T08:35:45.976Z,0.97
2018-09-29T08:38:13.453Z,1.10
2018-09-29T08:40:40.966Z,0.80
2018-09-29T08:43:08.475Z,0.90
2018-09-29T08:45:35.893Z,0.80
2018-09-29T08:48:03.357Z,0.80
2018-09-29T08:50:30.762Z,1.37
2018-09-29T08:52:58.238Z,1.17
2018-09-29T08:55:25.661Z,1.10
2018-09-29T08:57:53.076Z,0.80
2018-09-29T09:00:20.528Z,1.20
2018-09-29T09:02:47.967Z,1.10
2018-09-29T09:05:15.466Z,0.67
2018-09-29T09:07:42.916Z,1.00
2018-09-29T09:10:10.317Z,0.73
2018-09-29T09:12:37.823Z,1.07
2018-09-29T09:15:05.326Z,0.90
2018-09-29T09:17:32.732Z,0.90
2018-09-29T09:20:00.125Z,0.90
2018-09-29T09:22:37.865Z,1.10
2018-09-29T09:25:05.566Z,1.00
2018-09-29T09:27:32.973Z,0.70
2018-09-29T09:30:00.455Z,1.20
2018-09-29T09:32:27.854Z,0.83
2018-09-29T09:34:55.319Z,1.03
2018-09-29T09:37:22.720Z,0.90
2018-09-29T09:39:50.226Z,1.20
2018-09-29T09:42:17.617Z,0.77
2018-09-29T09:44:45.081Z,0.90
2018-09-29T09:47:12.555Z,0.90
2018-09-29T09:49:40.018Z,0.90
2018-09-29T09:52:07.433Z,0.80
2018-09-29T09:54:34.832Z,0.90
2018-09-29T09:57:02.277Z,0.97
2018-09-29T09:59:29.701Z,0.67
2018-09-29T10:02:21.049Z,0.73
2018-09-29T10:04:48.461Z,1.30
2018-09-29T10:07:15.917Z,0.80
2018-09-29T10:09:43.358Z,1.07
2018-09-29T10:12:10.836Z,0.90
2018-09-29T10:14:38.226Z,0.97
2018-09-29T10:17:05.637Z,0.80
2018-09-29T10:19:33.196Z,1.00
2018-09-29T10:22:01.210Z,0.80
2018-09-29T10:24:28.607Z,0.73
2018-09-29T10:26:56.033Z,0.70
2018-09-29T10:29:23.511Z,1.00
2018-09-29T10:31:50.939Z,0.80
2018-09-29T10:34:18.357Z,0.70
2018-09-29T10:36:45.816Z,0.90
2018-09-29T10:39:13.322Z,1.17
2018-09-29T10:41:41.276Z,1.00
2018-09-29T10:44:09.113Z,0.83
2018-09-29T10:46:36.454Z,0.97
2018-09-29T10:49:04.102Z,0.80
2018-09-29T10:51:31.754Z,0.90
2018-09-29T10:53:59.351Z,1.00
2018-09-29T10:56:26.749Z,1.33
2018-09-29T10:58:54.196Z,1.07
2018-09-29T11:01:21.613Z,0.77
2018-09-29T11:03:49.120Z,0.60
2018-09-29T11:06:16.537Z,0.83
2018-09-29T11:08:43.981Z,0.93
2018-09-29T11:11:11.433Z,0.73
2018-09-29T11:13:39.500Z,0.77
2018-09-29T11:16:07.041Z,0.90
2018-09-29T11:18:34.484Z,0.60
2018-09-29T11:21:02.071Z,1.10
2018-09-29T11:23:29.353Z,0.80
2018-09-29T11:25:56.925Z,0.70
2018-09-29T11:28:24.358Z,0.97
2018-09-29T11:30:51.856Z,1.10
2018-09-29T11:33:19.352Z,1.03
2018-09-29T11:35:47.001Z,0.87
2018-09-29T11:38:14.476Z,0.93
2018-09-29T11:40:41.953Z,1.10
2018-09-29T11:43:09.392Z,1.10
2018-09-29T11:45:37.476Z,1.10
2018-09-29T11:48:04.916Z,1.23
2018-09-29T11:50:32.323Z,1.10
2018-09-29T11:52:59.787Z,0.90
2018-09-29T11:55:27.193Z,1.30
2018-09-29T11:57:54.661Z,0.90
2018-09-29T12:00:22.106Z,1.07
2018-09-29T12:02:49.497Z,0.83
2018-09-29T12:05:16.967Z,1.20
2018-09-29T12:07:44.494Z,1.20
2018-09-29T12:10:11.941Z,0.97
2018-09-29T12:12:39.509Z,1.63
2018-09-29T12:15:06.943Z,0.97
2018-09-29T12:17:34.360Z,0.83
2018-09-29T12:20:01.814Z,0.93
2018-09-29T12:22:29.202Z,1.00
2018-09-29T12:24:56.646Z,0.93
2018-09-29T12:27:24.922Z,1.20
2018-09-29T12:29:51.591Z,0.90
2018-09-29T12:32:18.940Z,1.30
2018-09-29T12:34:46.366Z,1.20
2018-09-29T12:37:13.915Z,1.27
2018-09-29T12:39:42.036Z,1.40
2018-09-29T12:42:09.454Z,1.10
2018-09-29T12:44:36.951Z,1.00
2018-09-29T12:47:04.276Z,1.23
2018-09-29T12:49:31.669Z,1.17
2018-09-29T12:51:59.189Z,1.10
2018-09-29T12:54:26.561Z,1.30
2018-09-29T12:56:54.068Z,0.90
2018-09-29T12:59:21.499Z,1.63
2018-09-29T13:01:48.916Z,0.53
2018-09-29T13:04:16.356Z,1.10
2018-09-29T13:06:43.817Z,1.00
2018-09-29T13:09:11.271Z,1.30
2018-09-29T13:11:38.745Z,1.00
2018-09-29T13:14:06.381Z,1.53
2018-09-29T13:16:34.695Z,1.13
2018-09-29T13:19:02.185Z,1.23
2018-09-29T13:21:29.656Z,1.00
2018-09-29T13:23:57.071Z,0.87
2018-09-29T13:26:24.490Z,1.30
2018-09-29T13:28:51.933Z,1.33
2018-09-29T13:31:19.302Z,1.23
2018-09-29T13:33:46.739Z,1.63
2018-09-29T13:36:16.127Z,1.47
2018-09-29T13:38:43.998Z,1.50
2018-09-29T13:41:11.407Z,1.20
2018-09-29T13:43:38.828Z,1.10
2018-09-29T13:46:06.321Z,1.00
2018-09-29T13:48:33.741Z,1.40
2018-09-29T13:51:01.177Z,1.10
2018-09-29T13:53:28.555Z,1.20
2018-09-29T13:55:55.976Z,2.10
2018-09-29T13:58:23.410Z,1.40
2018-09-29T14:00:50.825Z,1.60
2018-09-29T14:03:18.276Z,1.07
2018-09-29T14:05:45.681Z,1.40
2018-09-29T14:08:13.092Z,1.20
2018-09-29T14:10:40.498Z,1.13
2018-09-29T14:13:07.944Z,1.67
2018-09-29T14:15:35.533Z,1.70
2018-09-29T14:18:02.948Z,1.20
2018-09-29T14:20:30.378Z,1.23
2018-09-29T14:22:57.766Z,1.43
2018-09-29T14:25:25.224Z,1.40
2018-09-29T14:27:52.644Z,1.40
2018-09-29T14:30:20.046Z,1.67
2018-09-29T14:32:47.537Z,1.63
2018-09-29T14:35:14.949Z,1.40
2018-09-29T14:37:42.352Z,1.97
2018-09-29T14:40:09.769Z,1.77
2018-09-29T14:42:37.404Z,1.60
2018-09-29T14:45:04.958Z,1.13
2018-09-29T14:47:32.322Z,1.67
2018-09-29T14:49:59.771Z,0.90
2018-09-29T14:52:27.307Z,0.97
2018-09-29T14:54:54.697Z,1.20
2018-09-29T14:57:22.117Z,0.90
2018-09-29T14:59:49.610Z,1.57
2018-09-29T15:02:17.029Z,1.13
2018-09-29T15:04:44.502Z,1.23
2018-09-29T15:07:11.897Z,1.07
2018-09-29T15:09:39.298Z,1.60
2018-09-29T15:12:06.689Z,1.47
2018-09-29T15:14:34.181Z,1.30
2018-09-29T15:17:01.585Z,1.20
2018-09-29T15:19:29.042Z,1.47
2018-09-29T15:21:56.429Z,1.20
2018-09-29T15:24:23.885Z,1.10
2018-09-29T15:26:51.309Z,1.30
2018-09-29T15:29:18.717Z,1.50
2018-09-29T15:31:46.205Z,1.50
2018-09-29T15:34:13.592Z,1.30
2018-09-29T15:36:40.973Z,1.20
2018-09-29T15:39:09.997Z,1.50
2018-09-29T15:41:37.410Z,1.33
2018-09-29T15:44:04.894Z,1.17
2018-09-29T15:46:32.365Z,1.37
2018-09-29T15:48:59.772Z,1.30
2018-09-29T15:51:27.195Z,1.53
2018-09-29T15:53:54.561Z,1.30
2018-09-29T15:56:21.977Z,1.60
2018-09-29T15:58:49.463Z,1.13
2018-09-29T16:01:16.949Z,1.50
2018-09-29T16:03:44.361Z,1.57
2018-09-29T16:06:11.766Z,1.40
2018-09-29T16:08:39.209Z,1.27
2018-09-29T16:11:06.645Z,1.10
2018-09-29T16:13:34.124Z,1.50
2018-09-29T16:16:01.537Z,1.70
2018-09-29T16:18:28.935Z,1.33
2018-09-29T16:20:56.366Z,2.77
2018-09-29T16:23:23.905Z,1.60
2018-09-29T16:25:51.305Z,1.60
2018-09-29T16:28:18.702Z,1.37
2018-09-29T16:30:46.156Z,1.90
2018-09-29T16:33:13.568Z,1.40
2018-09-29T16:35:40.978Z,1.60
2018-09-29T16:38:08.398Z,1.60
2018-09-29T16:40:35.827Z,3.00
2018-09-29T16:43:03.251Z,1.53
2018-09-29T16:45:30.685Z,5.80
2018-09-29T16:47:58.129Z,1.50
2018-09-29T16:50:25.564Z,2.23
2018-09-29T16:52:53.061Z,6.47
2018-09-29T16:55:20.465Z,2.00
2018-09-29T16:57:47.950Z,2.00
2018-09-29T17:00:15.389Z,1.50
2018-09-29T17:02:42.844Z,1.93
2018-09-29T17:05:10.301Z,1.73
2018-09-29T17:07:37.780Z,1.60
2018-09-29T17:10:05.245Z,1.83
2018-09-29T17:12:32.664Z,1.67
2018-09-29T17:15:00.088Z,1.73
2018-09-29T17:17:27.500Z,2.10
2018-09-29T17:19:54.905Z,1.90
2018-09-29T17:22:22.313Z,1.70
2018-09-29T17:24:49.757Z,1.60
2018-09-29T17:27:17.170Z,1.50
2018-09-29T17:29:44.839Z,1.67
2018-09-29T17:32:12.237Z,2.43
2018-09-29T17:34:39.614Z,1.60
2018-09-29T17:37:07.043Z,1.77
2018-09-29T17:39:34.486Z,1.93
2018-09-29T17:42:01.959Z,2.30
2018-09-29T17:44:29.480Z,2.00
2018-09-29T17:46:56.981Z,3.03
2018-09-29T17:49:24.396Z,2.50
2018-09-29T17:51:51.856Z,1.60
2018-09-29T17:54:19.256Z,2.07
2018-09-29T17:56:46.729Z,1.57
2018-09-29T17:59:14.118Z,1.50
2018-09-29T18:01:41.665Z,1.50
2018-09-29T18:04:09.271Z,1.97
2018-09-29T18:06:36.588Z,2.10
2018-09-29T18:09:07.402Z,1.40
2018-09-29T18:11:34.829Z,1.47
2018-09-29T18:14:02.268Z,1.50
2018-09-29T18:16:29.711Z,1.50
2018-09-29T18:18:57.163Z,1.30
2018-09-29T18:21:24.573Z,1.10
2018-09-29T18:23:52.054Z,1.37
2018-09-29T18:26:19.465Z,1.63
2018-09-29T18:28:46.876Z,1.20
2018-09-29T18:31:14.324Z,1.53
2018-09-29T18:33:41.772Z,1.40
2018-09-29T18:36:09.217Z,1.50
2018-09-29T18:38:37.121Z,1.60
2018-09-29T18:41:04.545Z,1.40
2018-09-29T18:43:31.976Z,1.97
2018-09-29T18:45:59.415Z,1.40
2018-09-29T18:48:26.825Z,1.20
2018-09-29T18:50:54.245Z,1.57
2018-09-29T18:53:21.694Z,1.40
2018-09-29T18:55:49.086Z,1.40
2018-09-29T18:58:16.518Z,1.33
2018-09-29T19:00:43.976Z,1.40
2018-09-29T19:03:11.363Z,1.40
2018-09-29T19:05:38.857Z,1.50
2018-09-29T19:08:06.261Z,1.50
2018-09-29T19:10:33.786Z,1.90
2018-09-29T19:13:01.242Z,1.87
2018-09-29T19:15:28.644Z,2.00
2018-09-29T19:17:56.118Z,2.13
2018-09-29T19:20:23.585Z,1.80
2018-09-29T19:22:51.058Z,2.20
2018-09-29T19:25:18.514Z,1.53
2018-09-29T19:27:45.927Z,1.50
2018-09-29T19:30:13.517Z,1.40
2018-09-29T19:32:40.925Z,1.77
2018-09-29T19:35:08.341Z,1.83
2018-09-29T19:37:35.755Z,1.67
2018-09-29T19:40:03.238Z,1.73
2018-09-29T19:42:30.723Z,1.60
2018-09-29T19:44:58.150Z,1.73
2018-09-29T19:47:25.772Z,1.50
2018-09-29T19:49:53.232Z,1.40
2018-09-29T19:52:20.629Z,1.30
2018-09-29T19:54:48.123Z,1.53
2018-09-29T19:57:15.646Z,1.70
2018-09-29T19:59:43.086Z,1.57
2018-09-29T20:02:10.477Z,1.60
2018-09-29T20:04:38.108Z,1.37
2018-09-29T20:07:05.591Z,1.30
2018-09-29T20:09:33.049Z,1.30
2018-09-29T20:12:00.529Z,1.23
2018-09-29T20:14:27.985Z,1.50
2018-09-29T20:16:55.488Z,1.40
2018-09-29T20:19:23.082Z,1.97
2018-09-29T20:21:50.616Z,1.30
2018-09-29T20:24:18.009Z,1.50
2018-09-29T20:26:45.437Z,1.20
2018-09-29T20:29:12.940Z,1.50
2018-09-29T20:31:40.350Z,1.70
2018-09-29T20:34:07.782Z,1.50
2018-09-29T20:36:35.261Z,1.30
2018-09-29T20:39:03.388Z,1.30
2018-09-29T20:41:30.821Z,1.40
2018-09-29T20:43:58.260Z,1.43
2018-09-29T20:46:25.697Z,1.20
2018-09-29T20:48:53.145Z,1.10
2018-09-29T20:51:20.601Z,1.20
2018-09-29T20:53:47.996Z,1.27
2018-09-29T20:56:15.439Z,1.27
2018-09-29T20:58:42.873Z,1.53
2018-09-29T21:01:10.313Z,1.10
2018-09-29T21:03:37.712Z,1.10
2018-09-29T21:06:05.133Z,1.50
2018-09-29T21:08:32.520Z,1.23
2018-09-29T21:10:59.927Z,1.20
2018-09-29T21:13:27.513Z,1.13
2018-09-29T21:15:54.946Z,1.30
2018-09-29T21:18:22.388Z,1.07
2018-09-29T21:20:49.862Z,1.20
2018-09-29T21:23:17.398Z,1.30
2018-09-29T21:25:44.909Z,1.10
2018-09-29T21:28:12.417Z,1.40
2018-09-29T21:30:40.127Z,1.73
2018-09-29T21:33:07.691Z,1.20
2018-09-29T21:35:35.221Z,1.23
2018-09-29T21:38:02.810Z,1.10
2018-09-29T21:40:30.482Z,1.20
2018-09-29T21:42:58.085Z,1.00
2018-09-29T21:45:25.690Z,1.10
2018-09-29T21:47:53.256Z,1.27
2018-09-29T21:50:20.730Z,0.93
2018-09-29T21:52:48.284Z,1.00
2018-09-29T21:55:16.202Z,1.40
2018-09-29T21:57:43.921Z,1.13
2018-09-29T22:00:11.689Z,1.20
2018-09-29T22:02:39.480Z,1.30
2018-09-29T22:05:06.992Z,1.50
2018-09-29T22:07:34.447Z,1.23
2018-09-29T22:10:01.992Z,1.03
2018-09-29T22:12:29.425Z,1.30
2018-09-29T22:14:57.114Z,1.10
2018-09-29T22:17:24.698Z,1.40
2018-09-29T22:19:52.105Z,1.03
2018-09-29T22:22:19.798Z,1.07
2018-09-29T22:24:47.305Z,1.40
2018-09-29T22:27:14.858Z,1.20
2018-09-29T22:29:42.437Z,1.10
2018-09-29T22:32:09.991Z,1.00
2018-09-29T22:34:37.547Z,1.00
2018-09-29T22:37:05.469Z,1.30
2018-09-29T22:39:32.935Z,1.03
2018-09-29T22:42:00.540Z,0.93
2018-09-29T22:44:28.419Z,1.37
2018-09-29T22:46:56.187Z,1.00
2018-09-29T22:49:23.862Z,1.30
2018-09-29T22:51:51.504Z,1.27
2018-09-29T22:54:19.202Z,1.10
2018-09-29T22:56:46.861Z,1.30
2018-09-29T22:59:14.450Z,1.30
2018-09-29T23:01:41.911Z,1.20
2018-09-29T23:04:09.533Z,1.90
2018-09-29T23:06:37.300Z,1.00
2018-09-29T23:09:08.135Z,1.30
2018-09-29T23:11:35.822Z,1.10
2018-09-29T23:14:03.593Z,1.10
2018-09-29T23:16:31.235Z,1.73
2018-09-29T23:18:59.153Z,1.40
2018-09-29T23:21:26.789Z,1.10
2018-09-29T23:23:54.524Z,1.30
2018-09-29T23:26:22.253Z,1.33
2018-09-29T23:28:49.843Z,1.60
2018-09-29T23:31:17.568Z,1.20
2018-09-29T23:33:45.162Z,1.23
2018-09-29T23:36:12.661Z,1.77
2018-09-29T23:38:40.130Z,1.10
2018-09-29T23:41:07.694Z,1.50
2018-09-29T23:43:35.114Z,1.43
2018-09-29T23:46:02.620Z,1.40
2018-09-29T23:48:30.108Z,1.23
2018-09-29T23:50:57.596Z,1.20
2018-09-29T23:53:25.162Z,1.40
2018-09-29T23:55:52.624Z,1.80
2018-09-29T23:58:20.115Z,1.27
